LEWISTON (LEW)

Elevation: 1870' · TRINITY R basin · Operator: US Bureau of Reclamation

Provisional data, subject to change.
Query executed Friday at 10:00:52   clock

Select a sensor type for a plot of data.
Note: Reservoir Flows are daily averages.

Earlier

Date RES ELE    STORAGE    RES CHG    OUTFLOW    INFLOW    EVAP    RIV REL    SPILL    DIS PWR   
 FEET   AF   AF   CFS   CFS   CFS   CFS   CFS   CFS  
06/02/2016 1900.59 13609 -103 3433 3388 7 3050 2900 110
06/03/2016 1900.82 13779 170 3595 3686 5 3183 3033 110
06/04/2016 1901.24 14091 312 3399 3562 6 3306 3156 110
06/05/2016 1900.93 13859 -232 3409 3297 5 2927 2777 110
06/06/2016 1900.80 13764 -95 3206 3165 7 2746 2596 110
06/07/2016 1900.67 13668 -96 3252 3211 7 2791 2641 110
06/08/2016 1900.67 13668 0 3215 3222 7 2749 2599 110
06/09/2016 1900.73 13712 44 3197 3225 6 2525 2375 110
06/10/2016 1900.34 13425 -287 3340 3201 6 2400 2250 110
06/11/2016 1900.20 13322 -103 3394 3348 6 2589 2439 110
06/12/2016 1900.63 13639 317 3055 3223 8 2246 2096 110
06/13/2016 1900.40 13469 -170 2999 2919 6 2191 2041 110
06/14/2016 1901.54 14315 846 2663 3098 8 2417 2267 110
06/15/2016 1901.39 14203 -112 2184 2132 4 2173 2023 110
06/16/2016 1901.36 14180 -23 2231 2223 4 2209 2059 110
06/17/2016 1900.76 13734 -446 2546 2323 2 2308 2158 110
06/18/2016 1901.06 13956 222 2097 2211 2 1848 1698 110
06/19/2016 1901.48 14270 314 2018 2178 2 1986 1836 110
06/20/2016 1901.42 14225 -45 2110 2093 6 2010 1860 110
06/21/2016 1901.24 14091 -134 2260 2197 5 2011 1861 110
06/22/2016 1900.73 13712 -379 3212 3027 6 2008 1858 110
06/23/2016 1900.69 13683 -29 3299 3291 7 2024 1874 110
06/24/2016 1900.56 13587 -96 3066 3026 8 1996 1846 110
06/25/2016 1900.73 13712 125 2872 2943 8 1807 1657 110
06/26/2016 1900.49 13536 -176 2963 2881 7 1759 1609 110
06/27/2016 1900.58 13602 66 2928 2969 8 1871 1721 110
06/28/2016 1900.63 13639 37 2813 2838 6 1669 1519 110
06/29/2016 1900.87 13815 176 2675 2771 7 1625 1475 110
06/30/2016 1900.98 13896 81 2779 2827 7 1709 1559 110
07/01/2016 -- -- -- -- -- -- -- -- --

Later | Latest

Warning! This data is preliminary and subject to revision.

Show LEW Map | Plot LEW Data | 1 Month LEW Data | Real-Time LEW Data | LEW Info